Weather at Koufonisi Heliport

Public forecast

Using degrees Celsius for public forecast. Weather courtesy of forecast.io.

Closest aviation weather report (METAR) to Koufonisi Heliport

Report is more than 6 hours old.

Closest report is Naxos Apollon Airport, 14.2 nm (26.2 km) NW.

2022/11/14 11:50 (retrieved 2 years ago)

LGNX 141150Z 36014KT 9999 SCT025 17/10 Q1022

Closest aviation forecast (TAF) to Koufonisi Heliport

Forecast is more than 12 hours old.

Closest forecast is Santorini Airport, 32.8 nm (60.7 km) S.

2023/02/22 18:13 (retrieved 1 year ago)

TAF LGSR 221700Z 2218/2318 21012KT 9999 SCT018 BECMG 2306/2308 27010KT